sensor_id;sensor_type;location;lat;lon;timestamp;P1;durP1;ratioP1;P2;durP2;ratioP2
20511;SDS011;10414;52.074;5.126;2024-01-07T00:02:05;15.18;;;7.70;;
20511;SDS011;10414;52.074;5.126;2024-01-07T00:04:32;16.48;;;7.85;;
20511;SDS011;10414;52.074;5.126;2024-01-07T00:06:59;16.50;;;8.00;;
20511;SDS011;10414;52.074;5.126;2024-01-07T00:09:26;18.02;;;8.68;;
20511;SDS011;10414;52.074;5.126;2024-01-07T00:11:54;18.38;;;9.00;;
20511;SDS011;10414;52.074;5.126;2024-01-07T00:14:21;14.68;;;7.85;;
20511;SDS011;10414;52.074;5.126;2024-01-07T00:16:48;19.17;;;9.15;;
20511;SDS011;10414;52.074;5.126;2024-01-07T00:19:15;15.32;;;7.70;;
20511;SDS011;10414;52.074;5.126;2024-01-07T00:21:42;16.90;;;7.80;;
20511;SDS011;10414;52.074;5.126;2024-01-07T00:24:09;18.60;;;8.85;;
20511;SDS011;10414;52.074;5.126;2024-01-07T00:26:36;17.20;;;8.32;;
20511;SDS011;10414;52.074;5.126;2024-01-07T00:29:04;18.50;;;8.63;;
20511;SDS011;10414;52.074;5.126;2024-01-07T00:31:31;18.35;;;8.60;;
20511;SDS011;10414;52.074;5.126;2024-01-07T00:33:58;18.60;;;8.88;;
20511;SDS011;10414;52.074;5.126;2024-01-07T00:36:24;18.42;;;8.35;;
20511;SDS011;10414;52.074;5.126;2024-01-07T00:38:51;21.15;;;9.90;;
20511;SDS011;10414;52.074;5.126;2024-01-07T00:41:18;18.23;;;8.13;;
20511;SDS011;10414;52.074;5.126;2024-01-07T00:43:45;17.90;;;8.95;;
20511;SDS011;10414;52.074;5.126;2024-01-07T00:46:13;20.27;;;8.95;;
20511;SDS011;10414;52.074;5.126;2024-01-07T00:48:40;22.80;;;10.13;;
20511;SDS011;10414;52.074;5.126;2024-01-07T00:51:07;19.30;;;9.13;;
20511;SDS011;10414;52.074;5.126;2024-01-07T00:53:34;18.08;;;8.13;;
20511;SDS011;10414;52.074;5.126;2024-01-07T00:56:01;19.52;;;8.18;;
20511;SDS011;10414;52.074;5.126;2024-01-07T00:58:28;18.73;;;9.30;;
20511;SDS011;10414;52.074;5.126;2024-01-07T01:00:55;20.23;;;9.25;;
20511;SDS011;10414;52.074;5.126;2024-01-07T01:03:23;21.15;;;9.63;;
20511;SDS011;10414;52.074;5.126;2024-01-07T01:05:50;20.77;;;8.85;;
20511;SDS011;10414;52.074;5.126;2024-01-07T01:08:17;20.45;;;8.57;;
20511;SDS011;10414;52.074;5.126;2024-01-07T01:10:44;22.98;;;9.20;;
20511;SDS011;10414;52.074;5.126;2024-01-07T01:13:11;19.63;;;9.00;;
20511;SDS011;10414;52.074;5.126;2024-01-07T01:15:38;24.10;;;10.48;;
20511;SDS011;10414;52.074;5.126;2024-01-07T01:18:05;18.55;;;8.68;;
20511;SDS011;10414;52.074;5.126;2024-01-07T01:20:33;21.10;;;8.88;;
20511;SDS011;10414;52.074;5.126;2024-01-07T01:23:00;18.60;;;8.45;;
20511;SDS011;10414;52.074;5.126;2024-01-07T01:25:27;18.95;;;8.63;;
20511;SDS011;10414;52.074;5.126;2024-01-07T01:27:54;20.92;;;9.32;;
20511;SDS011;10414;52.074;5.126;2024-01-07T01:30:22;19.48;;;9.13;;
20511;SDS011;10414;52.074;5.126;2024-01-07T01:32:49;19.33;;;9.30;;
20511;SDS011;10414;52.074;5.126;2024-01-07T01:35:15;18.88;;;8.35;;
20511;SDS011;10414;52.074;5.126;2024-01-07T01:37:43;16.42;;;7.43;;
20511;SDS011;10414;52.074;5.126;2024-01-07T01:40:11;19.30;;;9.30;;
20511;SDS011;10414;52.074;5.126;2024-01-07T01:42:38;18.90;;;9.50;;
20511;SDS011;10414;52.074;5.126;2024-01-07T01:45:05;21.00;;;9.85;;
20511;SDS011;10414;52.074;5.126;2024-01-07T01:47:32;20.80;;;9.30;;
20511;SDS011;10414;52.074;5.126;2024-01-07T01:49:59;19.17;;;8.90;;
20511;SDS011;10414;52.074;5.126;2024-01-07T01:52:27;22.30;;;11.00;;
20511;SDS011;10414;52.074;5.126;2024-01-07T01:54:55;22.40;;;10.85;;
20511;SDS011;10414;52.074;5.126;2024-01-07T01:57:22;18.13;;;9.15;;
20511;SDS011;10414;52.074;5.126;2024-01-07T01:59:55;19.00;;;8.88;;
20511;SDS011;10414;52.074;5.126;2024-01-07T02:02:27;18.30;;;8.07;;
20511;SDS011;10414;52.074;5.126;2024-01-07T02:04:55;19.08;;;8.25;;
20511;SDS011;10414;52.074;5.126;2024-01-07T02:07:23;18.35;;;8.45;;
20511;SDS011;10414;52.074;5.126;2024-01-07T02:09:50;19.77;;;10.00;;
20511;SDS011;10414;52.074;5.126;2024-01-07T02:12:18;19.50;;;8.30;;
20511;SDS011;10414;52.074;5.126;2024-01-07T02:14:45;19.83;;;8.73;;
20511;SDS011;10414;52.074;5.126;2024-01-07T02:17:12;20.58;;;9.20;;
20511;SDS011;10414;52.074;5.126;2024-01-07T02:19:39;17.60;;;8.63;;
20511;SDS011;10414;52.074;5.126;2024-01-07T02:22:06;16.77;;;7.40;;
20511;SDS011;10414;52.074;5.126;2024-01-07T02:24:34;20.60;;;8.73;;
20511;SDS011;10414;52.074;5.126;2024-01-07T02:27:01;18.00;;;7.20;;
20511;SDS011;10414;52.074;5.126;2024-01-07T02:29:28;16.98;;;8.02;;
20511;SDS011;10414;52.074;5.126;2024-01-07T02:31:54;21.75;;;9.13;;
20511;SDS011;10414;52.074;5.126;2024-01-07T02:34:21;18.70;;;7.57;;
20511;SDS011;10414;52.074;5.126;2024-01-07T02:36:48;21.17;;;8.60;;
20511;SDS011;10414;52.074;5.126;2024-01-07T02:39:15;22.20;;;9.18;;
20511;SDS011;10414;52.074;5.126;2024-01-07T02:41:43;20.30;;;8.60;;
20511;SDS011;10414;52.074;5.126;2024-01-07T02:44:10;25.95;;;14.25;;
20511;SDS011;10414;52.074;5.126;2024-01-07T02:46:37;20.40;;;9.85;;
20511;SDS011;10414;52.074;5.126;2024-01-07T02:49:04;20.33;;;8.80;;
20511;SDS011;10414;52.074;5.126;2024-01-07T02:51:31;23.58;;;9.70;;
20511;SDS011;10414;52.074;5.126;2024-01-07T02:53:57;26.25;;;10.75;;
20511;SDS011;10414;52.074;5.126;2024-01-07T02:56:24;26.75;;;11.15;;
20511;SDS011;10414;52.074;5.126;2024-01-07T02:58:53;22.70;;;9.65;;
20511;SDS011;10414;52.074;5.126;2024-01-07T03:01:21;25.20;;;10.10;;
20511;SDS011;10414;52.074;5.126;2024-01-07T03:03:48;28.58;;;11.10;;
20511;SDS011;10414;52.074;5.126;2024-01-07T03:06:15;25.45;;;10.60;;
20511;SDS011;10414;52.074;5.126;2024-01-07T03:08:42;26.80;;;10.98;;
20511;SDS011;10414;52.074;5.126;2024-01-07T03:11:09;27.30;;;11.43;;
20511;SDS011;10414;52.074;5.126;2024-01-07T03:13:36;25.83;;;12.20;;
20511;SDS011;10414;52.074;5.126;2024-01-07T03:16:05;23.52;;;10.65;;
20511;SDS011;10414;52.074;5.126;2024-01-07T03:18:32;24.20;;;10.90;;
20511;SDS011;10414;52.074;5.126;2024-01-07T03:20:59;23.77;;;10.18;;
20511;SDS011;10414;52.074;5.126;2024-01-07T03:23:26;23.05;;;11.00;;
20511;SDS011;10414;52.074;5.126;2024-01-07T03:25:53;26.20;;;10.57;;
20511;SDS011;10414;52.074;5.126;2024-01-07T03:28:20;22.30;;;9.93;;
20511;SDS011;10414;52.074;5.126;2024-01-07T03:30:46;27.27;;;10.75;;
20511;SDS011;10414;52.074;5.126;2024-01-07T03:33:15;19.42;;;9.10;;
20511;SDS011;10414;52.074;5.126;2024-01-07T03:35:41;25.92;;;11.30;;
20511;SDS011;10414;52.074;5.126;2024-01-07T03:38:08;21.15;;;9.38;;
20511;SDS011;10414;52.074;5.126;2024-01-07T03:40:35;21.17;;;9.48;;
20511;SDS011;10414;52.074;5.126;2024-01-07T03:43:02;21.88;;;9.90;;
20511;SDS011;10414;52.074;5.126;2024-01-07T03:45:29;23.55;;;9.48;;
20511;SDS011;10414;52.074;5.126;2024-01-07T03:47:56;25.00;;;10.63;;
20511;SDS011;10414;52.074;5.126;2024-01-07T03:50:24;21.58;;;10.73;;
20511;SDS011;10414;52.074;5.126;2024-01-07T03:52:51;22.13;;;10.55;;
20511;SDS011;10414;52.074;5.126;2024-01-07T03:55:18;26.08;;;10.18;;
20511;SDS011;10414;52.074;5.126;2024-01-07T03:57:45;26.52;;;12.10;;
20511;SDS011;10414;52.074;5.126;2024-01-07T04:00:12;20.75;;;9.15;;
20511;SDS011;10414;52.074;5.126;2024-01-07T04:02:39;25.77;;;12.88;;
20511;SDS011;10414;52.074;5.126;2024-01-07T04:05:07;26.23;;;11.00;;
20511;SDS011;10414;52.074;5.126;2024-01-07T04:07:35;23.15;;;9.95;;
20511;SDS011;10414;52.074;5.126;2024-01-07T04:10:03;21.23;;;9.40;;
20511;SDS011;10414;52.074;5.126;2024-01-07T04:12:30;26.90;;;11.88;;
20511;SDS011;10414;52.074;5.126;2024-01-07T04:14:56;25.98;;;11.10;;
20511;SDS011;10414;52.074;5.126;2024-01-07T04:17:23;23.58;;;8.73;;
20511;SDS011;10414;52.074;5.126;2024-01-07T04:19:51;22.75;;;10.02;;
20511;SDS011;10414;52.074;5.126;2024-01-07T04:22:18;26.25;;;11.93;;
20511;SDS011;10414;52.074;5.126;2024-01-07T04:24:46;25.95;;;12.75;;
20511;SDS011;10414;52.074;5.126;2024-01-07T04:27:13;28.90;;;12.50;;
20511;SDS011;10414;52.074;5.126;2024-01-07T04:29:40;28.15;;;11.85;;
20511;SDS011;10414;52.074;5.126;2024-01-07T04:32:07;27.10;;;11.13;;
20511;SDS011;10414;52.074;5.126;2024-01-07T04:34:33;26.45;;;11.32;;
20511;SDS011;10414;52.074;5.126;2024-01-07T04:37:00;28.58;;;11.20;;
20511;SDS011;10414;52.074;5.126;2024-01-07T04:39:27;30.52;;;13.07;;
20511;SDS011;10414;52.074;5.126;2024-01-07T04:41:55;29.38;;;12.25;;
20511;SDS011;10414;52.074;5.126;2024-01-07T04:44:22;31.00;;;12.20;;
20511;SDS011;10414;52.074;5.126;2024-01-07T04:46:49;31.30;;;13.10;;
20511;SDS011;10414;52.074;5.126;2024-01-07T04:49:16;27.75;;;12.38;;
20511;SDS011;10414;52.074;5.126;2024-01-07T04:51:42;30.00;;;13.73;;
20511;SDS011;10414;52.074;5.126;2024-01-07T04:54:09;30.63;;;12.68;;
20511;SDS011;10414;52.074;5.126;2024-01-07T04:56:36;26.83;;;11.98;;
20511;SDS011;10414;52.074;5.126;2024-01-07T04:59:04;23.65;;;9.85;;
20511;SDS011;10414;52.074;5.126;2024-01-07T05:01:32;28.17;;;11.10;;
20511;SDS011;10414;52.074;5.126;2024-01-07T05:03:59;29.17;;;11.82;;
20511;SDS011;10414;52.074;5.126;2024-01-07T05:06:26;26.75;;;11.40;;
20511;SDS011;10414;52.074;5.126;2024-01-07T05:08:52;28.33;;;11.00;;
20511;SDS011;10414;52.074;5.126;2024-01-07T05:11:19;27.17;;;10.07;;
20511;SDS011;10414;52.074;5.126;2024-01-07T05:13:46;24.10;;;11.40;;
20511;SDS011;10414;52.074;5.126;2024-01-07T05:16:19;22.23;;;9.80;;
20511;SDS011;10414;52.074;5.126;2024-01-07T05:18:46;24.50;;;10.50;;
20511;SDS011;10414;52.074;5.126;2024-01-07T05:21:13;23.27;;;10.23;;
20511;SDS011;10414;52.074;5.126;2024-01-07T05:23:40;26.17;;;12.07;;
20511;SDS011;10414;52.074;5.126;2024-01-07T05:26:07;21.65;;;9.85;;
20511;SDS011;10414;52.074;5.126;2024-01-07T05:28:34;20.80;;;9.45;;
20511;SDS011;10414;52.074;5.126;2024-01-07T05:31:02;23.08;;;10.88;;
20511;SDS011;10414;52.074;5.126;2024-01-07T05:33:30;20.63;;;10.15;;
20511;SDS011;10414;52.074;5.126;2024-01-07T05:35:57;20.35;;;8.80;;
20511;SDS011;10414;52.074;5.126;2024-01-07T05:38:24;20.48;;;9.93;;
20511;SDS011;10414;52.074;5.126;2024-01-07T05:40:51;20.80;;;10.65;;
20511;SDS011;10414;52.074;5.126;2024-01-07T05:43:18;20.45;;;8.93;;
20511;SDS011;10414;52.074;5.126;2024-01-07T05:45:45;17.40;;;8.57;;
20511;SDS011;10414;52.074;5.126;2024-01-07T05:48:11;19.05;;;8.68;;
20511;SDS011;10414;52.074;5.126;2024-01-07T05:50:40;21.27;;;8.13;;
20511;SDS011;10414;52.074;5.126;2024-01-07T05:53:06;18.83;;;8.05;;
20511;SDS011;10414;52.074;5.126;2024-01-07T05:55:34;21.10;;;9.15;;
20511;SDS011;10414;52.074;5.126;2024-01-07T05:58:00;19.80;;;8.32;;
20511;SDS011;10414;52.074;5.126;2024-01-07T06:00:27;20.10;;;8.95;;
20511;SDS011;10414;52.074;5.126;2024-01-07T06:02:54;23.92;;;9.13;;
20511;SDS011;10414;52.074;5.126;2024-01-07T06:05:21;18.58;;;9.70;;
20511;SDS011;10414;52.074;5.126;2024-01-07T06:07:49;18.30;;;8.30;;
20511;SDS011;10414;52.074;5.126;2024-01-07T06:10:16;18.80;;;8.95;;
20511;SDS011;10414;52.074;5.126;2024-01-07T06:12:43;19.50;;;8.35;;
20511;SDS011;10414;52.074;5.126;2024-01-07T06:15:10;17.48;;;8.18;;
20511;SDS011;10414;52.074;5.126;2024-01-07T06:17:37;17.30;;;7.90;;
20511;SDS011;10414;52.074;5.126;2024-01-07T06:20:04;22.75;;;9.55;;
20511;SDS011;10414;52.074;5.126;2024-01-07T06:22:33;20.73;;;8.32;;
20511;SDS011;10414;52.074;5.126;2024-01-07T06:25:01;21.20;;;10.10;;
20511;SDS011;10414;52.074;5.126;2024-01-07T06:27:28;20.73;;;10.00;;
20511;SDS011;10414;52.074;5.126;2024-01-07T06:29:55;21.20;;;10.40;;
20511;SDS011;10414;52.074;5.126;2024-01-07T06:32:22;23.38;;;9.50;;
20511;SDS011;10414;52.074;5.126;2024-01-07T06:34:50;22.73;;;9.95;;
20511;SDS011;10414;52.074;5.126;2024-01-07T06:37:17;21.02;;;10.35;;
20511;SDS011;10414;52.074;5.126;2024-01-07T06:39:44;23.33;;;9.40;;
20511;SDS011;10414;52.074;5.126;2024-01-07T06:42:12;23.40;;;9.73;;
20511;SDS011;10414;52.074;5.126;2024-01-07T06:44:39;16.65;;;8.93;;
20511;SDS011;10414;52.074;5.126;2024-01-07T06:47:06;18.05;;;8.73;;
20511;SDS011;10414;52.074;5.126;2024-01-07T06:49:33;21.75;;;9.13;;
20511;SDS011;10414;52.074;5.126;2024-01-07T06:52:00;22.42;;;8.93;;
20511;SDS011;10414;52.074;5.126;2024-01-07T06:54:27;17.77;;;8.75;;
20511;SDS011;10414;52.074;5.126;2024-01-07T06:56:54;18.73;;;8.88;;
20511;SDS011;10414;52.074;5.126;2024-01-07T06:59:22;17.80;;;8.48;;
20511;SDS011;10414;52.074;5.126;2024-01-07T07:01:49;20.13;;;9.13;;
20511;SDS011;10414;52.074;5.126;2024-01-07T07:04:15;17.15;;;8.13;;
20511;SDS011;10414;52.074;5.126;2024-01-07T07:06:42;19.08;;;7.82;;
20511;SDS011;10414;52.074;5.126;2024-01-07T07:09:09;18.52;;;9.43;;
20511;SDS011;10414;52.074;5.126;2024-01-07T07:11:37;17.98;;;8.18;;
20511;SDS011;10414;52.074;5.126;2024-01-07T07:14:04;16.05;;;8.25;;
20511;SDS011;10414;52.074;5.126;2024-01-07T07:16:33;16.98;;;8.10;;
20511;SDS011;10414;52.074;5.126;2024-01-07T07:19:00;17.17;;;7.93;;
20511;SDS011;10414;52.074;5.126;2024-01-07T07:21:27;19.45;;;11.63;;
20511;SDS011;10414;52.074;5.126;2024-01-07T07:23:54;18.17;;;7.97;;
20511;SDS011;10414;52.074;5.126;2024-01-07T07:26:22;19.92;;;8.10;;
20511;SDS011;10414;52.074;5.126;2024-01-07T07:28:48;17.80;;;8.57;;
20511;SDS011;10414;52.074;5.126;2024-01-07T07:31:15;20.55;;;9.38;;
20511;SDS011;10414;52.074;5.126;2024-01-07T07:33:43;18.92;;;9.57;;
20511;SDS011;10414;52.074;5.126;2024-01-07T07:36:10;24.00;;;10.63;;
20511;SDS011;10414;52.074;5.126;2024-01-07T07:38:37;16.88;;;8.15;;
20511;SDS011;10414;52.074;5.126;2024-01-07T07:41:04;20.38;;;8.63;;
20511;SDS011;10414;52.074;5.126;2024-01-07T07:43:32;18.25;;;9.32;;
20511;SDS011;10414;52.074;5.126;2024-01-07T07:45:59;21.83;;;8.45;;
20511;SDS011;10414;52.074;5.126;2024-01-07T07:48:28;19.83;;;9.38;;
20511;SDS011;10414;52.074;5.126;2024-01-07T07:50:56;19.70;;;9.13;;
20511;SDS011;10414;52.074;5.126;2024-01-07T07:53:23;19.90;;;8.82;;
20511;SDS011;10414;52.074;5.126;2024-01-07T07:55:50;18.88;;;8.73;;
20511;SDS011;10414;52.074;5.126;2024-01-07T07:58:18;16.75;;;7.07;;
20511;SDS011;10414;52.074;5.126;2024-01-07T08:00:45;18.70;;;8.13;;
20511;SDS011;10414;52.074;5.126;2024-01-07T08:03:13;22.25;;;8.07;;
20511;SDS011;10414;52.074;5.126;2024-01-07T08:05:40;16.17;;;7.53;;
20511;SDS011;10414;52.074;5.126;2024-01-07T08:08:09;14.70;;;7.05;;
20511;SDS011;10414;52.074;5.126;2024-01-07T08:10:36;17.70;;;8.20;;
20511;SDS011;10414;52.074;5.126;2024-01-07T08:13:03;17.65;;;8.10;;
20511;SDS011;10414;52.074;5.126;2024-01-07T08:15:32;16.95;;;7.57;;
20511;SDS011;10414;52.074;5.126;2024-01-07T08:17:59;18.83;;;11.23;;
20511;SDS011;10414;52.074;5.126;2024-01-07T08:20:28;21.60;;;10.27;;
20511;SDS011;10414;52.074;5.126;2024-01-07T08:22:55;18.05;;;8.77;;
20511;SDS011;10414;52.074;5.126;2024-01-07T08:25:24;13.90;;;7.10;;
20511;SDS011;10414;52.074;5.126;2024-01-07T08:27:51;18.20;;;7.88;;
20511;SDS011;10414;52.074;5.126;2024-01-07T08:30:18;18.70;;;10.55;;
20511;SDS011;10414;52.074;5.126;2024-01-07T08:32:45;16.02;;;7.78;;
20511;SDS011;10414;52.074;5.126;2024-01-07T08:35:12;17.15;;;8.70;;
20511;SDS011;10414;52.074;5.126;2024-01-07T08:37:40;17.80;;;8.20;;
20511;SDS011;10414;52.074;5.126;2024-01-07T08:40:07;17.42;;;8.98;;
20511;SDS011;10414;52.074;5.126;2024-01-07T08:42:36;19.02;;;9.88;;
20511;SDS011;10414;52.074;5.126;2024-01-07T08:45:04;16.08;;;7.38;;
20511;SDS011;10414;52.074;5.126;2024-01-07T08:47:31;18.02;;;8.02;;
20511;SDS011;10414;52.074;5.126;2024-01-07T08:50:00;15.80;;;7.30;;
20511;SDS011;10414;52.074;5.126;2024-01-07T08:52:28;17.52;;;9.90;;
20511;SDS011;10414;52.074;5.126;2024-01-07T08:54:56;19.58;;;8.70;;
20511;SDS011;10414;52.074;5.126;2024-01-07T08:57:23;19.45;;;9.73;;
20511;SDS011;10414;52.074;5.126;2024-01-07T08:59:51;16.60;;;8.73;;
20511;SDS011;10414;52.074;5.126;2024-01-07T09:02:18;15.63;;;7.43;;
20511;SDS011;10414;52.074;5.126;2024-01-07T09:04:46;15.73;;;7.00;;
20511;SDS011;10414;52.074;5.126;2024-01-07T09:07:13;16.35;;;7.95;;
20511;SDS011;10414;52.074;5.126;2024-01-07T09:09:41;16.58;;;7.88;;
20511;SDS011;10414;52.074;5.126;2024-01-07T09:12:08;12.50;;;5.72;;
20511;SDS011;10414;52.074;5.126;2024-01-07T09:14:36;14.63;;;8.27;;
20511;SDS011;10414;52.074;5.126;2024-01-07T09:17:05;15.75;;;7.75;;
20511;SDS011;10414;52.074;5.126;2024-01-07T09:19:32;16.58;;;7.20;;
20511;SDS011;10414;52.074;5.126;2024-01-07T09:21:59;16.23;;;7.90;;
20511;SDS011;10414;52.074;5.126;2024-01-07T09:24:27;14.75;;;8.85;;
20511;SDS011;10414;52.074;5.126;2024-01-07T09:26:54;18.23;;;8.88;;
20511;SDS011;10414;52.074;5.126;2024-01-07T09:29:22;18.20;;;7.75;;
20511;SDS011;10414;52.074;5.126;2024-01-07T09:31:49;14.85;;;8.00;;
20511;SDS011;10414;52.074;5.126;2024-01-07T09:34:17;15.15;;;7.28;;
20511;SDS011;10414;52.074;5.126;2024-01-07T09:36:43;16.45;;;8.30;;
20511;SDS011;10414;52.074;5.126;2024-01-07T09:39:10;16.38;;;8.27;;
20511;SDS011;10414;52.074;5.126;2024-01-07T09:41:37;17.63;;;9.95;;
20511;SDS011;10414;52.074;5.126;2024-01-07T09:44:05;13.05;;;6.60;;
20511;SDS011;10414;52.074;5.126;2024-01-07T09:46:34;16.75;;;9.27;;
20511;SDS011;10414;52.074;5.126;2024-01-07T09:49:03;18.90;;;7.65;;
20511;SDS011;10414;52.074;5.126;2024-01-07T09:51:31;16.60;;;8.25;;
20511;SDS011;10414;52.074;5.126;2024-01-07T09:54:02;15.98;;;7.68;;
20511;SDS011;10414;52.074;5.126;2024-01-07T09:56:32;14.90;;;7.35;;
20511;SDS011;10414;52.074;5.126;2024-01-07T09:59:04;14.13;;;7.78;;
20511;SDS011;10414;52.074;5.126;2024-01-07T10:01:33;16.65;;;7.63;;
20511;SDS011;10414;52.074;5.126;2024-01-07T10:04:01;15.20;;;7.55;;
20511;SDS011;10414;52.074;5.126;2024-01-07T10:06:28;16.25;;;7.15;;
20511;SDS011;10414;52.074;5.126;2024-01-07T10:08:56;14.27;;;6.32;;
20511;SDS011;10414;52.074;5.126;2024-01-07T10:11:24;14.25;;;5.85;;
20511;SDS011;10414;52.074;5.126;2024-01-07T10:13:51;12.65;;;5.78;;
20511;SDS011;10414;52.074;5.126;2024-01-07T10:16:19;14.48;;;8.20;;
20511;SDS011;10414;52.074;5.126;2024-01-07T10:18:46;13.77;;;6.22;;
20511;SDS011;10414;52.074;5.126;2024-01-07T10:21:13;12.57;;;5.90;;
20511;SDS011;10414;52.074;5.126;2024-01-07T10:23:39;13.35;;;6.30;;
20511;SDS011;10414;52.074;5.126;2024-01-07T10:26:08;10.80;;;5.18;;
20511;SDS011;10414;52.074;5.126;2024-01-07T10:28:34;13.93;;;5.75;;
20511;SDS011;10414;52.074;5.126;2024-01-07T10:31:03;13.88;;;7.10;;
20511;SDS011;10414;52.074;5.126;2024-01-07T10:33:30;11.02;;;5.28;;
20511;SDS011;10414;52.074;5.126;2024-01-07T10:36:00;13.05;;;6.05;;
20511;SDS011;10414;52.074;5.126;2024-01-07T10:38:29;10.40;;;4.55;;
20511;SDS011;10414;52.074;5.126;2024-01-07T10:40:56;11.95;;;4.75;;
20511;SDS011;10414;52.074;5.126;2024-01-07T10:43:27;7.65;;;3.53;;
20511;SDS011;10414;52.074;5.126;2024-01-07T10:45:55;10.82;;;4.75;;
20511;SDS011;10414;52.074;5.126;2024-01-07T10:48:26;7.95;;;3.72;;
20511;SDS011;10414;52.074;5.126;2024-01-07T10:50:56;9.98;;;4.70;;
20511;SDS011;10414;52.074;5.126;2024-01-07T10:53:26;10.27;;;5.30;;
20511;SDS011;10414;52.074;5.126;2024-01-07T10:55:59;11.70;;;3.85;;
20511;SDS011;10414;52.074;5.126;2024-01-07T10:58:30;11.02;;;4.80;;
20511;SDS011;10414;52.074;5.126;2024-01-07T11:00:59;7.60;;;3.45;;
20511;SDS011;10414;52.074;5.126;2024-01-07T11:03:31;7.80;;;4.27;;
20511;SDS011;10414;52.074;5.126;2024-01-07T11:06:06;9.48;;;4.72;;
20511;SDS011;10414;52.074;5.126;2024-01-07T11:08:39;10.10;;;4.40;;
20511;SDS011;10414;52.074;5.126;2024-01-07T11:11:12;9.38;;;3.30;;
20511;SDS011;10414;52.074;5.126;2024-01-07T11:13:43;7.85;;;3.40;;
20511;SDS011;10414;52.074;5.126;2024-01-07T11:16:10;6.70;;;3.45;;
20511;SDS011;10414;52.074;5.126;2024-01-07T11:18:38;7.75;;;3.38;;
20511;SDS011;10414;52.074;5.126;2024-01-07T11:21:05;6.88;;;3.10;;
20511;SDS011;10414;52.074;5.126;2024-01-07T11:23:33;6.63;;;2.80;;
20511;SDS011;10414;52.074;5.126;2024-01-07T11:26:02;7.23;;;3.30;;
20511;SDS011;10414;52.074;5.126;2024-01-07T11:28:43;6.25;;;3.25;;
20511;SDS011;10414;52.074;5.126;2024-01-07T11:31:11;8.15;;;2.33;;
20511;SDS011;10414;52.074;5.126;2024-01-07T11:33:38;5.07;;;2.63;;
20511;SDS011;10414;52.074;5.126;2024-01-07T11:36:05;8.88;;;3.28;;
20511;SDS011;10414;52.074;5.126;2024-01-07T11:38:33;7.65;;;2.92;;
20511;SDS011;10414;52.074;5.126;2024-01-07T11:41:02;6.45;;;2.72;;
20511;SDS011;10414;52.074;5.126;2024-01-07T11:43:30;6.93;;;2.70;;
20511;SDS011;10414;52.074;5.126;2024-01-07T11:46:00;8.10;;;3.17;;
20511;SDS011;10414;52.074;5.126;2024-01-07T11:48:27;6.45;;;3.15;;
20511;SDS011;10414;52.074;5.126;2024-01-07T11:50:54;5.35;;;2.67;;
20511;SDS011;10414;52.074;5.126;2024-01-07T11:53:21;6.50;;;2.80;;
20511;SDS011;10414;52.074;5.126;2024-01-07T11:55:48;6.97;;;3.17;;
20511;SDS011;10414;52.074;5.126;2024-01-07T11:58:15;6.70;;;2.80;;
20511;SDS011;10414;52.074;5.126;2024-01-07T12:00:42;5.90;;;2.92;;
20511;SDS011;10414;52.074;5.126;2024-01-07T12:03:10;6.10;;;2.78;;
20511;SDS011;10414;52.074;5.126;2024-01-07T12:05:37;7.70;;;2.65;;
20511;SDS011;10414;52.074;5.126;2024-01-07T12:08:05;4.65;;;2.25;;
20511;SDS011;10414;52.074;5.126;2024-01-07T12:10:32;8.20;;;3.08;;
20511;SDS011;10414;52.074;5.126;2024-01-07T12:12:59;7.38;;;2.40;;
20511;SDS011;10414;52.074;5.126;2024-01-07T12:15:28;5.63;;;2.38;;
20511;SDS011;10414;52.074;5.126;2024-01-07T12:17:56;4.35;;;2.33;;
20511;SDS011;10414;52.074;5.126;2024-01-07T12:20:25;5.05;;;2.55;;
20511;SDS011;10414;52.074;5.126;2024-01-07T12:22:54;5.63;;;1.92;;
20511;SDS011;10414;52.074;5.126;2024-01-07T12:25:22;4.82;;;2.42;;
20511;SDS011;10414;52.074;5.126;2024-01-07T12:27:50;6.57;;;2.40;;
20511;SDS011;10414;52.074;5.126;2024-01-07T12:30:19;5.22;;;1.98;;
20511;SDS011;10414;52.074;5.126;2024-01-07T12:32:46;5.57;;;2.03;;
20511;SDS011;10414;52.074;5.126;2024-01-07T12:35:13;5.88;;;2.22;;
20511;SDS011;10414;52.074;5.126;2024-01-07T12:37:41;6.88;;;2.45;;
20511;SDS011;10414;52.074;5.126;2024-01-07T12:40:09;4.65;;;2.00;;
20511;SDS011;10414;52.074;5.126;2024-01-07T12:42:37;4.05;;;1.95;;
20511;SDS011;10414;52.074;5.126;2024-01-07T12:45:09;5.47;;;2.40;;
20511;SDS011;10414;52.074;5.126;2024-01-07T12:47:37;4.85;;;1.50;;
20511;SDS011;10414;52.074;5.126;2024-01-07T12:50:04;4.38;;;1.95;;
20511;SDS011;10414;52.074;5.126;2024-01-07T12:52:31;6.43;;;1.80;;
20511;SDS011;10414;52.074;5.126;2024-01-07T12:54:59;4.03;;;1.90;;
20511;SDS011;10414;52.074;5.126;2024-01-07T12:57:26;4.50;;;2.00;;
20511;SDS011;10414;52.074;5.126;2024-01-07T12:59:54;6.35;;;2.88;;
20511;SDS011;10414;52.074;5.126;2024-01-07T13:02:20;4.68;;;1.65;;
20511;SDS011;10414;52.074;5.126;2024-01-07T13:04:48;4.63;;;1.60;;
20511;SDS011;10414;52.074;5.126;2024-01-07T13:07:15;5.72;;;1.70;;
20511;SDS011;10414;52.074;5.126;2024-01-07T13:09:42;6.22;;;1.73;;
20511;SDS011;10414;52.074;5.126;2024-01-07T13:12:11;3.63;;;1.45;;
20511;SDS011;10414;52.074;5.126;2024-01-07T13:14:38;4.13;;;1.50;;
20511;SDS011;10414;52.074;5.126;2024-01-07T13:17:05;4.50;;;1.27;;
20511;SDS011;10414;52.074;5.126;2024-01-07T13:19:33;3.72;;;1.30;;
20511;SDS011;10414;52.074;5.126;2024-01-07T13:22:00;4.32;;;1.50;;
20511;SDS011;10414;52.074;5.126;2024-01-07T13:24:27;5.60;;;1.77;;
20511;SDS011;10414;52.074;5.126;2024-01-07T13:26:54;4.95;;;1.80;;
20511;SDS011;10414;52.074;5.126;2024-01-07T13:29:25;4.13;;;1.60;;
20511;SDS011;10414;52.074;5.126;2024-01-07T13:31:52;3.53;;;1.65;;
20511;SDS011;10414;52.074;5.126;2024-01-07T13:34:19;3.22;;;1.45;;
20511;SDS011;10414;52.074;5.126;2024-01-07T13:36:46;5.00;;;1.80;;
20511;SDS011;10414;52.074;5.126;2024-01-07T13:39:13;3.05;;;1.48;;
20511;SDS011;10414;52.074;5.126;2024-01-07T13:41:41;3.70;;;1.45;;
20511;SDS011;10414;52.074;5.126;2024-01-07T13:44:08;4.18;;;1.65;;
20511;SDS011;10414;52.074;5.126;2024-01-07T13:46:43;4.10;;;1.40;;
20511;SDS011;10414;52.074;5.126;2024-01-07T13:49:11;5.45;;;1.52;;
20511;SDS011;10414;52.074;5.126;2024-01-07T13:51:37;3.67;;;1.42;;
20511;SDS011;10414;52.074;5.126;2024-01-07T13:54:04;5.05;;;1.60;;
20511;SDS011;10414;52.074;5.126;2024-01-07T13:56:32;6.30;;;1.50;;
20511;SDS011;10414;52.074;5.126;2024-01-07T13:59:01;3.85;;;1.30;;
20511;SDS011;10414;52.074;5.126;2024-01-07T14:01:29;3.53;;;1.50;;
20511;SDS011;10414;52.074;5.126;2024-01-07T14:03:57;4.35;;;1.80;;
20511;SDS011;10414;52.074;5.126;2024-01-07T14:06:24;4.35;;;1.77;;
20511;SDS011;10414;52.074;5.126;2024-01-07T14:08:50;3.53;;;1.58;;
20511;SDS011;10414;52.074;5.126;2024-01-07T14:11:18;4.60;;;1.63;;
20511;SDS011;10414;52.074;5.126;2024-01-07T14:13:46;4.07;;;1.73;;
20511;SDS011;10414;52.074;5.126;2024-01-07T14:16:13;4.03;;;1.38;;
20511;SDS011;10414;52.074;5.126;2024-01-07T14:18:40;5.13;;;1.85;;
20511;SDS011;10414;52.074;5.126;2024-01-07T14:21:08;3.60;;;1.40;;
20511;SDS011;10414;52.074;5.126;2024-01-07T14:23:35;4.25;;;1.55;;
20511;SDS011;10414;52.074;5.126;2024-01-07T14:26:02;3.38;;;1.40;;
20511;SDS011;10414;52.074;5.126;2024-01-07T14:28:29;3.15;;;1.35;;
20511;SDS011;10414;52.074;5.126;2024-01-07T14:30:56;3.85;;;1.50;;
20511;SDS011;10414;52.074;5.126;2024-01-07T14:33:24;3.72;;;1.75;;
20511;SDS011;10414;52.074;5.126;2024-01-07T14:35:51;3.63;;;1.40;;
20511;SDS011;10414;52.074;5.126;2024-01-07T14:38:19;4.70;;;2.08;;